createdAt,value
2018-06-21T00:00:01.159Z,99.77
2018-06-21T00:01:01.314Z,99.58
2018-06-21T00:02:01.469Z,99.49
2018-06-21T00:03:01.623Z,99.77
2018-06-21T00:04:01.783Z,99.96
2018-06-21T00:05:01.934Z,99.99
2018-06-21T00:06:02.090Z,99.96
2018-06-21T00:07:02.245Z,99.99
2018-06-21T00:08:02.398Z,99.99
2018-06-21T00:09:02.555Z,99.99
2018-06-21T00:10:02.710Z,99.99
2018-06-21T00:11:02.868Z,99.99
2018-06-21T00:12:03.021Z,99.99
2018-06-21T00:13:03.175Z,99.99
2018-06-21T00:14:03.333Z,99.99
2018-06-21T00:15:03.488Z,99.99
2018-06-21T00:16:03.642Z,99.99
2018-06-21T00:17:03.797Z,99.99
2018-06-21T00:18:03.952Z,99.99
2018-06-21T00:19:04.107Z,99.99
2018-06-21T00:20:04.265Z,99.99
2018-06-21T00:21:04.423Z,99.99
2018-06-21T00:22:04.577Z,99.99
2018-06-21T00:23:04.733Z,99.99
2018-06-21T00:24:04.886Z,99.99
2018-06-21T00:25:05.043Z,99.99
2018-06-21T00:26:05.196Z,99.99
2018-06-21T00:27:05.350Z,99.99
2018-06-21T00:28:05.505Z,99.99
2018-06-21T00:29:05.665Z,99.99
2018-06-21T00:30:05.817Z,99.99
2018-06-21T00:31:05.973Z,99.99
2018-06-21T00:32:06.131Z,99.99
2018-06-21T00:33:06.277Z,99.99
2018-06-21T00:34:06.427Z,99.99
2018-06-21T00:35:06.585Z,99.99
2018-06-21T00:36:06.741Z,99.99
2018-06-21T00:37:06.896Z,99.99
2018-06-21T00:38:07.048Z,99.99
2018-06-21T00:39:07.206Z,99.99
2018-06-21T00:40:07.361Z,99.99
2018-06-21T00:41:07.515Z,99.99
2018-06-21T00:42:07.671Z,99.99
2018-06-21T00:43:07.825Z,99.99
2018-06-21T00:44:07.981Z,99.99
2018-06-21T00:45:08.134Z,99.99
2018-06-21T00:46:08.290Z,99.99
2018-06-21T00:47:08.444Z,99.99
2018-06-21T00:48:08.600Z,99.99
2018-06-21T00:49:08.756Z,99.99
2018-06-21T00:50:08.907Z,99.99
2018-06-21T00:51:09.065Z,99.99
2018-06-21T00:52:09.218Z,99.99
2018-06-21T00:53:09.371Z,99.99
2018-06-21T00:54:09.529Z,99.99
2018-06-21T00:55:09.681Z,99.99
2018-06-21T00:56:09.838Z,99.99
2018-06-21T00:57:09.992Z,99.99
2018-06-21T00:58:10.146Z,99.99
2018-06-21T00:59:10.302Z,99.99
2018-06-21T01:00:10.456Z,99.99
2018-06-21T01:01:10.610Z,99.99
2018-06-21T01:02:10.765Z,99.99
2018-06-21T01:03:10.919Z,99.99
2018-06-21T01:04:11.074Z,99.99
2018-06-21T01:05:11.228Z,99.99
2018-06-21T01:06:11.386Z,99.99
2018-06-21T01:07:11.540Z,99.99
2018-06-21T01:08:11.693Z,99.99
2018-06-21T01:09:11.849Z,99.99
2018-06-21T01:10:12.005Z,99.99
2018-06-21T01:11:12.160Z,99.99
2018-06-21T01:12:12.323Z,99.99
2018-06-21T01:13:12.474Z,99.99
2018-06-21T01:14:12.628Z,99.99
2018-06-21T01:15:12.780Z,99.99
2018-06-21T01:16:12.953Z,99.99
2018-06-21T01:17:13.097Z,99.99
2018-06-21T01:18:13.253Z,99.99
2018-06-21T01:19:13.409Z,99.99
2018-06-21T01:20:13.563Z,99.99
2018-06-21T01:21:13.718Z,99.99
2018-06-21T01:22:13.873Z,99.99
2018-06-21T01:23:14.027Z,99.99
2018-06-21T01:24:14.180Z,99.99
2018-06-21T01:25:14.336Z,99.99
2018-06-21T01:26:14.489Z,99.99
2018-06-21T01:27:14.651Z,99.99
2018-06-21T01:28:14.798Z,99.99
2018-06-21T01:29:14.954Z,99.99
2018-06-21T01:30:15.113Z,99.99
2018-06-21T01:31:15.266Z,99.99
2018-06-21T01:32:15.420Z,99.99
2018-06-21T01:33:15.575Z,99.99
2018-06-21T01:34:15.735Z,99.99
2018-06-21T01:35:15.885Z,99.99
2018-06-21T01:36:16.069Z,99.99
2018-06-21T01:37:16.223Z,99.99
2018-06-21T01:38:16.380Z,99.99
2018-06-21T01:39:16.533Z,99.99
2018-06-21T01:40:16.693Z,99.99
2018-06-21T01:41:16.845Z,99.99
2018-06-21T01:42:17.000Z,99.99
2018-06-21T01:43:17.154Z,99.99
2018-06-21T01:44:17.309Z,99.99
2018-06-21T01:45:17.467Z,99.99
2018-06-21T01:46:17.621Z,99.99
2018-06-21T01:47:17.776Z,99.99
2018-06-21T01:48:17.930Z,99.99
2018-06-21T01:49:18.085Z,99.99
2018-06-21T01:50:18.242Z,99.99
2018-06-21T01:51:18.397Z,99.99
2018-06-21T01:52:18.551Z,99.99
2018-06-21T01:53:18.708Z,99.99
2018-06-21T01:54:18.872Z,99.99
2018-06-21T01:55:19.026Z,99.99
2018-06-21T01:56:19.180Z,99.99
2018-06-21T01:57:19.337Z,99.99
2018-06-21T01:58:19.493Z,99.99
2018-06-21T01:59:19.708Z,99.99
2018-06-21T02:00:19.802Z,99.99
2018-06-21T02:01:19.959Z,99.99
2018-06-21T02:02:20.114Z,99.99
2018-06-21T02:03:20.268Z,99.99
2018-06-21T02:04:20.422Z,99.99
2018-06-21T02:05:20.576Z,99.99
2018-06-21T02:06:20.730Z,99.99
2018-06-21T02:07:20.886Z,99.99
2018-06-21T02:08:21.041Z,99.99
2018-06-21T02:09:21.195Z,99.99
2018-06-21T02:10:21.349Z,99.99
2018-06-21T02:11:21.502Z,99.99
2018-06-21T02:12:21.659Z,99.99
2018-06-21T02:13:21.811Z,99.99
2018-06-21T02:14:21.970Z,99.99
2018-06-21T02:15:22.124Z,99.99
2018-06-21T02:16:22.281Z,99.99
2018-06-21T02:17:22.435Z,99.99
2018-06-21T02:18:22.593Z,99.99
2018-06-21T02:19:22.747Z,99.99
2018-06-21T02:20:22.900Z,99.99
2018-06-21T02:21:23.056Z,99.99
2018-06-21T02:22:23.217Z,99.99
2018-06-21T02:23:23.366Z,99.99
2018-06-21T02:24:23.523Z,99.99
2018-06-21T02:25:23.681Z,99.99
2018-06-21T02:26:23.833Z,99.99
2018-06-21T02:27:23.987Z,99.99
2018-06-21T02:28:24.142Z,99.99
2018-06-21T02:29:24.297Z,99.99
2018-06-21T02:30:24.453Z,99.99
2018-06-21T02:31:24.605Z,99.99
2018-06-21T02:32:24.765Z,99.99
2018-06-21T02:33:24.919Z,99.99
2018-06-21T02:34:25.152Z,99.99
2018-06-21T02:35:25.232Z,99.99
2018-06-21T02:36:25.385Z,99.99
2018-06-21T02:37:25.541Z,99.99
2018-06-21T02:38:25.698Z,99.99
2018-06-21T02:39:25.851Z,99.99
2018-06-21T02:40:26.006Z,99.99
2018-06-21T02:41:26.165Z,99.99
2018-06-21T02:42:26.320Z,99.99
2018-06-21T02:43:26.481Z,99.99
2018-06-21T02:44:26.631Z,99.99
2018-06-21T02:45:26.786Z,99.99
2018-06-21T02:46:26.939Z,99.99
2018-06-21T02:47:27.094Z,99.99
2018-06-21T02:48:27.248Z,99.99
2018-06-21T02:49:27.403Z,99.99
2018-06-21T02:50:27.557Z,99.99
2018-06-21T02:51:27.711Z,99.99
2018-06-21T02:52:27.867Z,99.99
2018-06-21T02:53:28.024Z,99.99
2018-06-21T02:54:28.177Z,99.99
2018-06-21T02:55:28.330Z,99.99
2018-06-21T02:56:28.487Z,99.99
2018-06-21T02:57:28.642Z,99.99
2018-06-21T02:58:28.795Z,99.99
2018-06-21T02:59:28.950Z,99.99
2018-06-21T03:00:29.106Z,99.99
2018-06-21T03:01:29.271Z,99.99
2018-06-21T03:02:29.416Z,99.99
2018-06-21T03:03:29.571Z,99.99
2018-06-21T03:04:29.727Z,99.99
2018-06-21T03:05:29.882Z,99.99
2018-06-21T03:06:30.036Z,99.99
2018-06-21T03:07:30.189Z,99.99
2018-06-21T03:08:30.346Z,99.99
2018-06-21T03:09:30.501Z,99.99
2018-06-21T03:10:30.657Z,99.99
2018-06-21T03:11:30.812Z,99.99
2018-06-21T03:12:30.965Z,99.99
2018-06-21T03:13:31.127Z,99.99
2018-06-21T03:14:31.301Z,99.99
2018-06-21T03:15:31.456Z,99.99
2018-06-21T03:16:31.609Z,99.99
2018-06-21T03:17:31.763Z,99.99
2018-06-21T03:18:31.919Z,99.99
2018-06-21T03:19:32.075Z,99.99
2018-06-21T03:20:32.228Z,99.99
2018-06-21T03:21:32.385Z,99.99
2018-06-21T03:22:32.538Z,99.99
2018-06-21T03:23:32.693Z,99.99
2018-06-21T03:24:32.847Z,99.99
2018-06-21T03:25:33.002Z,99.99
2018-06-21T03:26:33.157Z,99.99
2018-06-21T03:27:33.310Z,99.99
2018-06-21T03:28:33.470Z,99.99
2018-06-21T03:29:33.619Z,99.99
2018-06-21T03:30:33.774Z,99.99
2018-06-21T03:31:33.935Z,99.99
2018-06-21T03:32:34.084Z,99.99
2018-06-21T03:33:34.242Z,99.99
2018-06-21T03:34:34.392Z,99.99
2018-06-21T03:35:34.549Z,99.99
2018-06-21T03:36:34.700Z,99.99
2018-06-21T03:37:34.853Z,99.99
2018-06-21T03:38:35.013Z,99.99
2018-06-21T03:39:35.166Z,99.99
2018-06-21T03:40:35.320Z,99.99
2018-06-21T03:41:35.473Z,99.99
2018-06-21T03:42:35.629Z,99.99
2018-06-21T03:43:35.783Z,99.99
2018-06-21T03:44:35.947Z,99.99
2018-06-21T03:45:36.093Z,99.99
2018-06-21T03:46:36.247Z,99.99
2018-06-21T03:47:36.404Z,99.99
2018-06-21T03:48:36.556Z,99.99
2018-06-21T03:49:36.713Z,99.99
2018-06-21T03:50:36.866Z,99.99
2018-06-21T03:51:37.021Z,99.99
2018-06-21T03:52:37.177Z,99.99
2018-06-21T03:53:37.332Z,99.99
2018-06-21T03:54:37.488Z,99.99
2018-06-21T03:55:37.643Z,99.99
2018-06-21T03:56:37.796Z,99.99
2018-06-21T03:57:37.953Z,99.99
2018-06-21T03:58:38.108Z,99.99
2018-06-21T03:59:38.266Z,99.99
2018-06-21T04:00:38.423Z,99.99
2018-06-21T04:01:38.580Z,99.99
2018-06-21T04:02:38.732Z,99.99
2018-06-21T04:03:38.888Z,99.99
2018-06-21T04:04:39.041Z,99.99
2018-06-21T04:05:39.197Z,99.99
2018-06-21T04:06:39.352Z,99.99
2018-06-21T04:07:39.506Z,99.99
2018-06-21T04:08:39.661Z,99.99
2018-06-21T04:09:39.817Z,99.99
2018-06-21T04:10:39.979Z,99.99
2018-06-21T04:11:40.129Z,99.99
2018-06-21T04:12:40.280Z,99.99
2018-06-21T04:13:40.435Z,99.99
2018-06-21T04:14:40.591Z,99.99
2018-06-21T04:15:40.749Z,99.99
2018-06-21T04:16:40.903Z,99.99
2018-06-21T04:17:41.056Z,99.99
2018-06-21T04:18:41.213Z,99.99
2018-06-21T04:19:41.367Z,99.99
2018-06-21T04:20:41.523Z,99.99
2018-06-21T04:21:41.677Z,99.99
2018-06-21T04:22:41.832Z,99.99
2018-06-21T04:23:41.990Z,99.99
2018-06-21T04:24:42.144Z,99.99
2018-06-21T04:25:42.297Z,99.99
2018-06-21T04:26:42.455Z,99.99
2018-06-21T04:27:42.611Z,99.99
2018-06-21T04:28:42.765Z,99.99
2018-06-21T04:29:42.922Z,99.99
2018-06-21T04:30:43.082Z,99.99
2018-06-21T04:31:43.237Z,99.99
2018-06-21T04:32:43.389Z,99.99
2018-06-21T04:33:43.543Z,99.99
2018-06-21T04:34:43.696Z,99.99
2018-06-21T04:35:43.852Z,99.99
2018-06-21T04:36:44.012Z,99.99
2018-06-21T04:37:44.165Z,99.99
2018-06-21T04:38:44.316Z,99.99
2018-06-21T04:39:44.473Z,99.99
2018-06-21T04:40:44.627Z,99.99
2018-06-21T04:41:44.780Z,99.99
2018-06-21T04:42:44.946Z,99.99
2018-06-21T04:43:45.103Z,99.99
2018-06-21T04:44:45.258Z,99.99
2018-06-21T04:45:45.419Z,99.99
2018-06-21T04:46:45.573Z,99.99
2018-06-21T04:47:45.725Z,99.99
2018-06-21T04:48:45.883Z,99.99
2018-06-21T04:49:46.038Z,99.99
2018-06-21T04:50:46.191Z,99.99
2018-06-21T04:51:46.347Z,99.99
2018-06-21T04:52:46.505Z,99.99
2018-06-21T04:53:46.657Z,99.99
2018-06-21T04:54:46.815Z,99.99
2018-06-21T04:55:46.971Z,99.99
2018-06-21T04:56:47.127Z,99.99
2018-06-21T04:57:47.284Z,99.99
2018-06-21T04:58:47.440Z,99.99
2018-06-21T04:59:47.601Z,99.99
2018-06-21T05:00:47.752Z,99.39
2018-06-21T05:01:47.906Z,99.39
2018-06-21T05:02:48.062Z,99.01
2018-06-21T05:03:48.220Z,98.53
2018-06-21T05:04:48.375Z,98.14
2018-06-21T05:05:48.533Z,97.91
2018-06-21T05:06:48.688Z,98.82
2018-06-21T05:07:48.843Z,98.10
2018-06-21T05:08:49.000Z,97.42
2018-06-21T05:09:49.153Z,96.75
2018-06-21T05:10:49.309Z,97.33
2018-06-21T05:11:49.465Z,96.94
2018-06-21T05:12:49.626Z,96.85
2018-06-21T05:13:49.779Z,97.52
2018-06-21T05:14:49.933Z,97.33
2018-06-21T05:15:50.090Z,97.52
2018-06-21T05:16:50.245Z,97.28
2018-06-21T05:17:50.405Z,97.19
2018-06-21T05:18:50.557Z,97.38
2018-06-21T05:19:50.718Z,96.13
2018-06-21T05:20:50.869Z,95.79
2018-06-21T05:21:51.025Z,95.98
2018-06-21T05:22:51.182Z,95.65
2018-06-21T05:23:51.337Z,94.69
2018-06-21T05:24:51.496Z,95.03
2018-06-21T05:25:51.651Z,94.93
2018-06-21T05:26:51.809Z,95.21
2018-06-21T05:27:51.964Z,95.31
2018-06-21T05:28:52.120Z,95.03
2018-06-21T05:29:52.279Z,94.73
2018-06-21T05:30:52.433Z,94.73
2018-06-21T05:31:52.591Z,94.73
2018-06-21T05:32:52.747Z,94.21
2018-06-21T05:33:52.904Z,93.34
2018-06-21T05:34:53.062Z,93.44
2018-06-21T05:35:53.217Z,94.88
2018-06-21T05:36:53.375Z,94.78
2018-06-21T05:37:53.533Z,94.30
2018-06-21T05:38:53.691Z,93.73
2018-06-21T05:39:53.851Z,92.61
2018-06-21T05:40:54.009Z,91.94
2018-06-21T05:41:54.165Z,90.89
2018-06-21T05:42:54.321Z,91.51
2018-06-21T05:43:54.479Z,90.16
2018-06-21T05:44:54.632Z,90.26
2018-06-21T05:51:59.521Z,85.43
2018-06-21T05:52:59.678Z,85.72
2018-06-21T05:53:59.835Z,87.32
2018-06-21T05:54:59.993Z,88.18
2018-06-21T05:56:00.148Z,86.83
2018-06-21T05:57:00.313Z,86.45
2018-06-21T05:58:00.468Z,86.55
2018-06-21T05:59:00.625Z,86.93
2018-06-21T06:00:00.779Z,87.90
2018-06-21T06:01:00.937Z,87.60
2018-06-21T06:02:01.105Z,88.38
2018-06-21T06:03:01.252Z,88.09
2018-06-21T06:04:01.409Z,87.51
2018-06-21T06:05:01.568Z,87.03
2018-06-21T06:06:01.725Z,86.83
2018-06-21T06:07:01.884Z,87.17
2018-06-21T06:08:02.039Z,87.41
2018-06-21T06:09:02.221Z,87.22
2018-06-21T06:10:02.414Z,87.22
2018-06-21T06:11:02.538Z,87.22
2018-06-21T06:12:02.693Z,87.22
2018-06-21T06:13:02.854Z,86.55
2018-06-21T06:14:03.046Z,86.45
2018-06-21T06:15:03.169Z,86.78
2018-06-21T06:16:03.327Z,86.49
2018-06-21T06:17:03.485Z,85.82
2018-06-21T06:18:03.649Z,85.05
2018-06-21T06:19:03.801Z,85.63
2018-06-21T06:20:04.029Z,85.72
2018-06-21T06:21:04.113Z,85.57
2018-06-21T06:22:04.269Z,84.61
2018-06-21T06:23:04.427Z,83.84
2018-06-21T06:24:04.583Z,83.88
2018-06-21T06:25:04.743Z,83.88
2018-06-21T06:26:04.900Z,83.11
2018-06-21T06:27:05.057Z,82.72
2018-06-21T06:28:05.219Z,81.95
2018-06-21T06:29:05.376Z,82.53
2018-06-21T06:30:05.534Z,81.47
2018-06-21T06:31:05.691Z,81.76
2018-06-21T06:32:05.849Z,80.99
2018-06-21T06:33:06.007Z,80.69
2018-06-21T06:34:06.165Z,80.16
2018-06-21T06:35:06.322Z,79.29
2018-06-21T06:36:06.483Z,79.77
2018-06-21T06:37:06.637Z,78.33
2018-06-21T06:38:06.797Z,78.42
2018-06-21T06:39:06.953Z,78.75
2018-06-21T06:40:07.115Z,77.69
2018-06-21T06:41:07.274Z,77.11
2018-06-21T06:42:07.434Z,77.50
2018-06-21T06:43:07.592Z,77.92
2018-06-21T06:44:07.750Z,76.67
2018-06-21T06:45:07.909Z,75.64
2018-06-21T06:46:08.083Z,75.93
2018-06-21T06:47:08.230Z,74.19
2018-06-21T06:48:08.388Z,74.77
2018-06-21T06:49:08.544Z,75.16
2018-06-21T06:50:08.704Z,74.10
2018-06-21T06:51:08.864Z,74.00
2018-06-21T06:52:09.023Z,74.64
2018-06-21T06:53:09.181Z,74.06
2018-06-21T06:54:09.342Z,74.16
2018-06-21T06:55:09.499Z,74.25
2018-06-21T06:56:09.659Z,73.67
2018-06-21T06:57:09.815Z,74.25
2018-06-21T06:58:09.976Z,74.64
2018-06-21T06:59:10.135Z,74.79
2018-06-21T07:00:10.296Z,74.35
2018-06-21T07:01:10.455Z,74.51
2018-06-21T07:02:10.612Z,74.02
2018-06-21T07:03:10.770Z,74.31
2018-06-21T07:04:10.932Z,74.12
2018-06-21T07:05:11.094Z,74.12
2018-06-21T07:06:11.248Z,74.51
2018-06-21T07:07:11.410Z,74.69
2018-06-21T07:08:11.638Z,74.60
2018-06-21T07:09:11.735Z,73.54
2018-06-21T07:10:11.891Z,74.02
2018-06-21T07:11:12.050Z,73.93
2018-06-21T07:12:12.209Z,73.93
2018-06-21T07:13:12.367Z,73.63
2018-06-21T07:14:12.536Z,73.73
2018-06-21T07:15:12.684Z,73.54
2018-06-21T07:16:12.844Z,73.83
2018-06-21T07:17:13.003Z,73.44
2018-06-21T07:18:13.161Z,72.77
2018-06-21T07:19:13.318Z,73.44
2018-06-21T07:20:13.479Z,73.35
2018-06-21T07:21:13.639Z,73.28
2018-06-21T07:22:13.796Z,72.71
2018-06-21T07:23:13.953Z,72.61
2018-06-21T07:24:14.116Z,73.19
2018-06-21T07:25:14.275Z,72.71
2018-06-21T07:26:14.436Z,71.94
2018-06-21T07:27:14.660Z,72.13
2018-06-21T07:28:14.753Z,71.97
2018-06-21T07:29:14.913Z,71.97
2018-06-21T07:30:15.072Z,71.30
2018-06-21T07:31:15.233Z,71.48
2018-06-21T07:32:15.391Z,71.52
2018-06-21T07:33:15.549Z,71.52
2018-06-21T07:34:15.710Z,71.52
2018-06-21T07:35:15.867Z,69.68
2018-06-21T07:36:16.039Z,69.24
2018-06-21T07:37:16.186Z,68.08
2018-06-21T07:38:16.344Z,68.52
2018-06-21T07:39:16.504Z,67.66
2018-06-21T07:40:16.663Z,69.10
2018-06-21T07:41:16.829Z,69.20
2018-06-21T07:42:16.987Z,69.20
2018-06-21T07:43:17.145Z,68.43
2018-06-21T07:44:17.305Z,68.91
2018-06-21T07:45:17.465Z,69.26
2018-06-21T07:46:17.624Z,69.07
2018-06-21T07:47:17.785Z,68.14
2018-06-21T07:48:17.945Z,68.24
2018-06-21T07:49:18.103Z,67.56
2018-06-21T07:50:18.261Z,68.43
2018-06-21T07:51:18.420Z,69.30
2018-06-21T07:52:18.580Z,68.24
2018-06-21T07:53:18.740Z,67.40
2018-06-21T07:54:18.902Z,66.53
2018-06-21T07:55:19.060Z,66.75
2018-06-21T07:56:19.223Z,64.92
2018-06-21T07:57:19.382Z,64.72
2018-06-21T07:58:19.542Z,64.31
2018-06-21T07:59:19.703Z,64.50
2018-06-21T08:00:19.866Z,64.31
2018-06-21T08:01:20.023Z,64.21
2018-06-21T08:02:20.182Z,65.08
2018-06-21T08:03:20.341Z,64.53
2018-06-21T08:04:20.502Z,63.95
2018-06-21T08:05:20.660Z,63.63
2018-06-21T08:06:20.820Z,63.46
2018-06-21T08:07:20.981Z,63.27
2018-06-21T08:08:21.140Z,63.18
2018-06-21T08:09:21.302Z,62.01
2018-06-21T08:10:21.461Z,62.50
2018-06-21T08:11:21.622Z,61.98
2018-06-21T08:12:21.781Z,61.40
2018-06-21T08:13:21.940Z,61.11
2018-06-21T08:14:22.103Z,61.02
2018-06-21T08:15:22.262Z,61.40
2018-06-21T08:16:22.426Z,61.21
2018-06-21T08:17:22.582Z,61.11
2018-06-21T08:18:22.745Z,60.82
2018-06-21T08:19:22.902Z,60.92
2018-06-21T08:20:23.152Z,61.02
2018-06-21T08:21:23.224Z,61.02
2018-06-21T08:22:23.384Z,60.72
2018-06-21T08:23:23.546Z,61.02
2018-06-21T08:24:23.704Z,59.95
2018-06-21T08:25:23.866Z,59.38
2018-06-21T08:26:24.024Z,58.44
2018-06-21T08:27:24.183Z,57.86
2018-06-21T08:28:24.343Z,58.27
2018-06-21T08:29:24.502Z,58.47
2018-06-21T08:30:24.662Z,58.56
2018-06-21T08:31:24.822Z,58.24
2018-06-21T08:32:24.986Z,58.85
2018-06-21T08:33:25.144Z,58.47
2018-06-21T08:34:25.305Z,58.27
2018-06-21T08:35:25.467Z,57.86
2018-06-21T08:36:25.627Z,58.34
2018-06-21T08:37:25.789Z,58.34
2018-06-21T08:38:25.948Z,58.47
2018-06-21T08:39:26.112Z,59.23
2018-06-21T08:40:26.271Z,59.33
2018-06-21T08:41:26.427Z,58.47
2018-06-21T08:42:26.591Z,58.27
2018-06-21T08:43:26.751Z,58.85
2018-06-21T08:44:26.912Z,58.63
2018-06-21T08:45:27.076Z,59.31
2018-06-21T08:46:27.236Z,59.28
2018-06-21T08:47:27.396Z,59.79
2018-06-21T08:48:27.557Z,59.59
2018-06-21T08:49:27.721Z,59.69
2018-06-21T08:50:27.878Z,60.27
2018-06-21T08:51:28.039Z,59.69
2018-06-21T08:52:28.199Z,59.82
2018-06-21T08:53:28.362Z,59.53
2018-06-21T08:54:28.521Z,59.63
2018-06-21T08:55:28.683Z,59.98
2018-06-21T08:56:28.845Z,60.66
2018-06-21T08:57:29.022Z,61.24
2018-06-21T08:58:29.183Z,61.15
2018-06-21T08:59:29.326Z,61.33
2018-06-21T09:00:29.488Z,61.50
2018-06-21T09:01:29.648Z,62.56
2018-06-21T09:02:29.808Z,62.92
2018-06-21T09:03:29.975Z,63.40
2018-06-21T09:04:30.132Z,63.79
2018-06-21T09:05:30.292Z,64.37
2018-06-21T09:06:30.453Z,64.37
2018-06-21T09:07:30.614Z,64.47
2018-06-21T09:08:30.776Z,65.11
2018-06-21T09:09:30.934Z,65.59
2018-06-21T09:10:31.095Z,65.78
2018-06-21T09:11:31.253Z,65.95
2018-06-21T09:12:31.418Z,66.91
2018-06-21T09:13:31.576Z,66.53
2018-06-21T09:14:31.736Z,66.56
2018-06-21T09:15:31.894Z,66.46
2018-06-21T09:16:32.051Z,67.14
2018-06-21T09:17:32.207Z,67.59
2018-06-21T09:18:32.367Z,67.49
2018-06-21T09:19:32.528Z,68.20
2018-06-21T09:20:32.689Z,67.52
2018-06-21T09:21:32.849Z,67.72
2018-06-21T09:22:33.008Z,67.52
2018-06-21T09:23:33.166Z,67.43
2018-06-21T09:24:33.326Z,66.98
2018-06-21T09:25:33.487Z,66.20
2018-06-21T09:26:33.646Z,66.72
2018-06-21T09:27:33.806Z,65.47
2018-06-21T09:28:33.965Z,65.66
2018-06-21T09:29:34.128Z,65.47
2018-06-21T09:30:34.288Z,64.89
2018-06-21T09:31:34.448Z,65.11
2018-06-21T09:32:34.608Z,64.07
2018-06-21T09:33:34.769Z,63.79
2018-06-21T09:34:34.928Z,63.40
2018-06-21T09:35:35.090Z,62.95
2018-06-21T09:36:35.252Z,62.43
2018-06-21T09:37:35.412Z,63.40
2018-06-21T09:38:35.574Z,63.49
2018-06-21T09:39:35.736Z,64.24
2018-06-21T09:40:35.893Z,64.34
2018-06-21T09:41:36.055Z,65.40
2018-06-21T09:42:36.215Z,64.98
2018-06-21T09:43:36.379Z,65.95
2018-06-21T09:44:36.541Z,66.20
2018-06-21T09:45:36.702Z,67.36
2018-06-21T09:46:36.866Z,68.10
2018-06-21T09:47:37.025Z,67.91
2018-06-21T09:48:37.188Z,68.98
2018-06-21T09:49:37.348Z,68.98
2018-06-21T09:50:37.508Z,68.88
2018-06-21T09:51:37.668Z,68.72
2018-06-21T09:52:37.924Z,69.78
2018-06-21T09:53:37.986Z,69.36
2018-06-21T09:54:38.148Z,70.10
2018-06-21T09:55:38.307Z,71.74
2018-06-21T09:56:38.468Z,70.97
2018-06-21T09:57:38.632Z,71.78
2018-06-21T09:58:38.790Z,70.90
2018-06-21T09:59:38.952Z,71.10
2018-06-21T10:00:39.109Z,70.97
2018-06-21T10:01:39.268Z,71.36
2018-06-21T10:02:39.434Z,71.16
2018-06-21T10:03:39.595Z,71.26
2018-06-21T10:04:39.756Z,71.80
2018-06-21T10:05:39.912Z,72.86
2018-06-21T10:06:40.075Z,73.63
2018-06-21T10:07:40.240Z,73.25
2018-06-21T10:08:40.393Z,72.96
2018-06-21T10:09:40.583Z,73.63
2018-06-21T10:10:40.716Z,73.25
2018-06-21T10:11:40.874Z,74.12
2018-06-21T10:12:41.035Z,73.83
2018-06-21T10:13:41.195Z,73.35
2018-06-21T10:14:41.356Z,73.79
2018-06-21T10:15:41.549Z,73.83
2018-06-21T10:16:41.674Z,73.31
2018-06-21T10:17:41.836Z,73.60
2018-06-21T10:18:41.996Z,74.18
2018-06-21T10:19:42.165Z,74.33
2018-06-21T10:20:42.317Z,77.03
2018-06-21T10:21:42.480Z,82.01
2018-06-21T10:22:42.640Z,84.38
2018-06-21T10:23:42.801Z,85.49
2018-06-21T10:24:42.960Z,86.79
2018-06-21T10:25:43.118Z,88.43
2018-06-21T10:26:43.277Z,89.58
2018-06-21T10:27:43.440Z,90.89
2018-06-21T10:28:43.608Z,92.19
2018-06-21T10:29:43.759Z,92.86
2018-06-21T10:30:43.919Z,92.96
2018-06-21T10:31:44.073Z,93.82
2018-06-21T10:32:44.234Z,94.98
2018-06-21T10:33:44.391Z,94.11
2018-06-21T10:34:44.553Z,93.63
2018-06-21T10:35:44.713Z,95.36
2018-06-21T10:36:44.872Z,96.37
2018-06-21T10:37:45.029Z,93.96
2018-06-21T10:38:45.186Z,93.29
2018-06-21T10:39:45.344Z,92.38
2018-06-21T10:40:45.501Z,92.57
2018-06-21T10:41:45.660Z,92.57
2018-06-21T10:42:45.818Z,92.18
2018-06-21T10:43:45.977Z,90.78
2018-06-21T10:44:46.138Z,89.39
2018-06-21T10:45:46.297Z,89.53
2018-06-21T10:46:46.451Z,88.57
2018-06-21T10:47:46.608Z,87.80
2018-06-21T10:48:46.774Z,87.41
2018-06-21T10:49:46.934Z,87.60
2018-06-21T10:50:47.092Z,88.76
2018-06-21T10:51:47.250Z,87.32
2018-06-21T10:52:47.408Z,87.22
2018-06-21T10:53:47.566Z,86.35
2018-06-21T10:54:47.725Z,85.63
2018-06-21T10:55:47.886Z,86.30
2018-06-21T10:56:48.043Z,85.72
2018-06-21T10:57:48.201Z,84.95
2018-06-21T10:58:48.356Z,83.41
2018-06-21T10:59:48.516Z,83.41
2018-06-21T11:00:48.673Z,83.45
2018-06-21T11:01:48.834Z,83.98
2018-06-21T11:02:48.991Z,82.14
2018-06-21T11:03:49.150Z,82.09
2018-06-21T11:04:49.308Z,81.84
2018-06-21T11:05:49.464Z,79.47
2018-06-21T11:06:49.623Z,78.59
2018-06-21T11:07:49.787Z,79.12
2018-06-21T11:08:49.956Z,78.83
2018-06-21T11:09:50.112Z,78.06
2018-06-21T11:10:50.272Z,77.34
2018-06-21T11:11:50.433Z,78.02
2018-06-21T11:12:50.595Z,77.57
2018-06-21T11:13:50.756Z,76.67
2018-06-21T11:14:50.945Z,76.37
2018-06-21T11:15:51.073Z,77.01
2018-06-21T11:16:51.311Z,77.65
2018-06-21T11:17:51.395Z,78.81
2018-06-21T11:18:51.557Z,78.71
2018-06-21T11:19:51.712Z,78.13
2018-06-21T11:20:51.878Z,78.23
2018-06-21T11:21:52.036Z,78.36
2018-06-21T11:22:52.197Z,77.59
2018-06-21T11:23:52.355Z,77.25
2018-06-21T11:24:52.516Z,76.47
2018-06-21T11:25:52.674Z,74.83
2018-06-21T11:26:52.834Z,74.41
2018-06-21T11:27:53.040Z,75.70
2018-06-21T11:28:53.153Z,75.47
2018-06-21T11:29:53.314Z,74.37
2018-06-21T11:30:53.473Z,75.82
2018-06-21T11:31:53.638Z,75.37
2018-06-21T11:32:53.793Z,75.67
2018-06-21T11:33:53.953Z,75.37
2018-06-21T11:34:54.117Z,75.37
2018-06-21T11:35:54.276Z,74.79
2018-06-21T11:36:54.437Z,74.41
2018-06-21T11:37:54.597Z,74.31
2018-06-21T11:38:54.757Z,72.67
2018-06-21T11:39:54.917Z,69.13
2018-06-21T11:40:55.078Z,66.91
2018-06-21T11:41:55.240Z,65.75
2018-06-21T11:42:55.398Z,64.89
2018-06-21T11:43:55.562Z,66.53
2018-06-21T11:44:55.720Z,62.28
2018-06-21T11:45:55.881Z,61.44
2018-06-21T11:46:56.041Z,61.05
2018-06-21T11:47:56.202Z,62.70
2018-06-21T11:48:56.370Z,60.79
2018-06-21T11:49:56.523Z,58.25
2018-06-21T11:50:56.687Z,59.89
2018-06-21T11:51:56.845Z,59.15
2018-06-21T11:52:57.005Z,58.47
2018-06-21T11:53:57.166Z,57.82
2018-06-21T11:54:57.328Z,57.05
2018-06-21T11:55:57.487Z,54.08
2018-06-21T11:56:57.647Z,54.95
2018-06-21T11:57:57.809Z,54.75
2018-06-21T11:58:57.969Z,55.92
2018-06-21T11:59:58.133Z,54.66
2018-06-21T12:00:58.293Z,54.15
2018-06-21T12:01:58.454Z,53.19
2018-06-21T12:02:58.615Z,53.86
2018-06-21T12:03:58.777Z,54.63
2018-06-21T12:04:58.938Z,54.03
2018-06-21T12:05:59.099Z,54.03
2018-06-21T12:06:59.262Z,54.71
2018-06-21T12:07:59.419Z,53.64
2018-06-21T12:08:59.576Z,52.36
2018-06-21T12:09:59.736Z,53.64
2018-06-21T12:10:59.900Z,52.77
2018-06-21T12:12:00.057Z,51.81
2018-06-21T12:13:00.225Z,52.58
2018-06-21T12:14:00.417Z,51.64
2018-06-21T12:15:00.548Z,50.57
2018-06-21T12:16:00.720Z,50.65
2018-06-21T12:17:00.884Z,49.77
2018-06-21T12:18:01.041Z,48.61
2018-06-21T12:19:01.205Z,48.13
2018-06-21T12:20:01.368Z,50.09
2018-06-21T12:21:01.528Z,48.71
2018-06-21T12:22:01.687Z,47.94
2018-06-21T12:23:01.847Z,48.25
2018-06-21T12:24:02.008Z,47.77
2018-06-21T12:25:02.180Z,48.18
2018-06-21T12:26:02.348Z,47.02
2018-06-21T12:27:02.486Z,47.69
2018-06-21T12:28:02.646Z,46.32
2018-06-21T12:29:02.810Z,47.09
2018-06-21T12:30:02.972Z,48.13
2018-06-21T12:31:03.129Z,49.07
2018-06-21T12:32:03.355Z,49.15
2018-06-21T12:33:03.451Z,49.90
2018-06-21T12:34:03.614Z,50.18
2018-06-21T12:35:03.775Z,51.53
2018-06-21T12:36:03.938Z,52.53
2018-06-21T12:37:04.098Z,52.07
2018-06-21T12:38:04.321Z,50.65
2018-06-21T12:39:04.422Z,48.13
2018-06-21T12:40:04.580Z,49.22
2018-06-21T12:41:04.744Z,48.25
2018-06-21T12:42:04.907Z,49.12
2018-06-21T12:43:05.071Z,48.35
2018-06-21T12:44:05.229Z,47.00
2018-06-21T12:45:05.389Z,48.57
2018-06-21T12:46:05.552Z,49.07
2018-06-21T12:47:05.715Z,49.95
2018-06-21T12:48:05.887Z,48.69
2018-06-21T12:49:06.048Z,49.00
2018-06-21T12:50:06.209Z,46.92
2018-06-21T12:51:06.370Z,45.95
2018-06-21T12:52:06.531Z,47.28
2018-06-21T12:53:06.693Z,47.16
2018-06-21T12:54:06.854Z,45.76
2018-06-21T12:55:07.015Z,46.92
2018-06-21T12:56:07.175Z,47.29
2018-06-21T12:57:07.337Z,48.06
2018-06-21T12:58:07.534Z,47.60
2018-06-21T12:59:07.662Z,47.29
2018-06-21T13:00:07.824Z,47.50